createdAt,value
2015-10-01T00:00:17.242Z,7.1
2015-10-01T00:00:35.820Z,7.1
2015-10-01T00:00:54.242Z,7.1
2015-10-01T00:01:12.853Z,7.1
2015-10-01T00:01:31.259Z,7.1
2015-10-01T00:01:49.603Z,7.1
2015-10-01T00:02:07.963Z,7.1
2015-10-01T00:02:26.482Z,7.1
2015-10-01T00:02:45.123Z,7.1
2015-10-01T00:03:03.623Z,7.1
2015-10-01T00:03:22.125Z,7.1
2015-10-01T00:03:40.531Z,7.1
2015-10-01T00:03:59.156Z,7.1
2015-10-01T00:04:17.612Z,7.1
2015-10-01T00:04:36.003Z,7.1
2015-10-01T00:04:54.409Z,7.2
2015-10-01T00:05:12.987Z,7.2
2015-10-01T00:05:31.428Z,7.1
2015-10-01T00:05:49.943Z,7
2015-10-01T00:06:08.412Z,7
2015-10-01T00:06:26.821Z,7
2015-10-01T00:06:45.212Z,7
2015-10-01T00:07:03.587Z,7
2015-10-01T00:07:22.011Z,7
2015-10-01T00:07:40.386Z,7
2015-10-01T00:07:58.745Z,7
2015-10-01T00:08:17.263Z,7
2015-10-01T00:08:35.575Z,7
2015-10-01T00:08:54.185Z,7
2015-10-01T00:09:12.607Z,7
2015-10-01T00:09:31.267Z,7
2015-10-01T00:09:49.829Z,7
2015-10-01T00:10:08.282Z,7
2015-10-01T00:10:26.738Z,7.1
2015-10-01T00:10:45.253Z,7.1
2015-10-01T00:11:03.613Z,7.1
2015-10-01T00:11:22.178Z,7
2015-10-01T00:11:40.553Z,6.9
2015-10-01T00:11:58.787Z,6.9
2015-10-01T00:12:17.287Z,6.9
2015-10-01T00:12:35.790Z,6.9
2015-10-01T00:12:54.244Z,7
2015-10-01T00:13:12.853Z,7
2015-10-01T00:13:31.278Z,7
2015-10-01T00:13:49.809Z,7
2015-10-01T00:14:08.168Z,6.9
2015-10-01T00:14:26.781Z,7
2015-10-01T00:14:45.281Z,7
2015-10-01T00:15:03.781Z,7
2015-10-01T00:15:22.140Z,6.9
2015-10-01T00:15:40.548Z,7
2015-10-01T00:15:58.955Z,7
2015-10-01T00:16:17.533Z,7
2015-10-01T00:16:36.036Z,7.1
2015-10-01T00:16:54.505Z,7.1
2015-10-01T00:17:12.895Z,7
2015-10-01T00:17:31.273Z,7
2015-10-01T00:17:49.648Z,7
2015-10-01T00:18:08.195Z,7
2015-10-01T00:18:26.726Z,7
2015-10-01T00:18:45.260Z,7
2015-10-01T00:19:03.650Z,7
2015-10-01T00:19:22.181Z,7
2015-10-01T00:19:40.746Z,7.1
2015-10-01T00:19:59.199Z,7.1
2015-10-01T00:20:17.558Z,7.1
2015-10-01T00:20:36.421Z,7.1
2015-10-01T00:20:54.999Z,7.1
2015-10-01T00:21:13.483Z,7.1
2015-10-01T00:21:32.127Z,7.1
2015-10-01T00:21:50.564Z,7
2015-10-01T00:22:09.236Z,7
2015-10-01T00:22:27.674Z,7
2015-10-01T00:22:46.317Z,7
2015-10-01T00:23:04.849Z,7
2015-10-01T00:23:23.458Z,7
2015-10-01T00:23:42.367Z,7
2015-10-01T00:24:00.977Z,7
2015-10-01T00:24:19.492Z,7
2015-10-01T00:24:38.338Z,7
2015-10-01T00:24:56.697Z,7
2015-10-01T00:25:15.385Z,7
2015-10-01T00:25:33.947Z,7
2015-10-01T00:25:52.325Z,6.9
2015-10-01T00:26:10.700Z,6.9
2015-10-01T00:26:29.075Z,7
2015-10-01T00:26:47.453Z,7
2015-10-01T00:27:06.000Z,7.1
2015-10-01T00:27:24.578Z,7
2015-10-01T00:27:43.002Z,7
2015-10-01T00:28:01.487Z,7
2015-10-01T00:28:19.940Z,7
2015-10-01T00:28:38.502Z,7
2015-10-01T00:28:57.069Z,7
2015-10-01T00:29:15.475Z,7
2015-10-01T00:29:33.834Z,7
2015-10-01T00:29:52.274Z,7
2015-10-01T00:30:10.836Z,7
2015-10-01T00:30:29.258Z,6.9
2015-10-01T00:30:48.027Z,6.9
2015-10-01T00:31:06.652Z,7
2015-10-01T00:31:25.011Z,7
2015-10-01T00:31:43.543Z,7
2015-10-01T00:32:02.108Z,7
2015-10-01T00:32:20.624Z,7
2015-10-01T00:32:39.124Z,7
2015-10-01T00:32:57.485Z,6.9
2015-10-01T00:33:15.766Z,7
2015-10-01T00:33:34.157Z,6.9
2015-10-01T00:33:52.552Z,7
2015-10-01T00:34:10.989Z,7
2015-10-01T00:34:29.442Z,7
2015-10-01T00:34:47.944Z,7
2015-10-01T00:35:06.366Z,7.1
2015-10-01T00:35:24.804Z,7
2015-10-01T00:35:43.163Z,7
2015-10-01T00:36:01.603Z,6.9
2015-10-01T00:36:20.166Z,6.9
2015-10-01T00:36:38.775Z,6.9
2015-10-01T00:36:57.138Z,6.9
2015-10-01T00:37:15.544Z,6.9
2015-10-01T00:37:33.919Z,7
2015-10-01T00:37:52.578Z,6.9
2015-10-01T00:38:11.156Z,6.8
2015-10-01T00:38:29.656Z,6.8
2015-10-01T00:38:48.156Z,6.8
2015-10-01T00:39:06.752Z,6.7
2015-10-01T00:39:25.236Z,6.6
2015-10-01T00:39:43.908Z,6.7
2015-10-01T00:40:02.661Z,6.7
2015-10-01T00:40:21.208Z,6.7
2015-10-01T00:40:39.771Z,6.7
2015-10-01T00:40:58.211Z,6.6
2015-10-01T00:41:16.617Z,6.6
2015-10-01T00:41:35.180Z,6.6
2015-10-01T00:41:53.555Z,6.6
2015-10-01T00:42:12.027Z,6.5
2015-10-01T00:42:30.683Z,6.5
2015-10-01T00:42:48.449Z,6.6
2015-10-01T00:43:06.809Z,6.5
2015-10-01T00:43:25.590Z,6.5
2015-10-01T00:43:43.965Z,6.5
2015-10-01T00:44:02.437Z,6.5
2015-10-01T00:44:20.796Z,6.4
2015-10-01T00:44:39.531Z,6.5
2015-10-01T00:44:57.752Z,6.5
2015-10-01T00:45:16.237Z,6.5
2015-10-01T00:45:34.643Z,6.4
2015-10-01T00:45:53.081Z,6.4
2015-10-01T00:46:11.584Z,6.4
2015-10-01T00:46:30.271Z,6.4
2015-10-01T00:46:48.662Z,6.4
2015-10-01T00:47:07.102Z,6.4
2015-10-01T00:47:25.508Z,6.4
2015-10-01T00:47:44.008Z,6.3
2015-10-01T00:48:02.605Z,6.3
2015-10-01T00:48:21.121Z,6.4
2015-10-01T00:48:39.511Z,6.4
2015-10-01T00:48:57.871Z,6.4
2015-10-01T00:49:16.311Z,6.4
2015-10-01T00:49:35.061Z,6.4
2015-10-01T00:49:53.483Z,6.4
2015-10-01T00:50:12.035Z,6.4
2015-10-01T00:50:30.410Z,6.4
2015-10-01T00:50:48.801Z,6.4
2015-10-01T00:51:07.272Z,6.4
2015-10-01T00:51:25.694Z,6.5
2015-10-01T00:51:44.007Z,6.5
2015-10-01T00:52:02.382Z,6.5
2015-10-01T00:52:21.072Z,6.5
2015-10-01T00:52:39.447Z,6.5
2015-10-01T00:52:57.885Z,6.5
2015-10-01T00:53:16.294Z,6.5
2015-10-01T00:53:34.685Z,6.6
2015-10-01T00:53:53.341Z,6.5
2015-10-01T00:54:11.827Z,6.5
2015-10-01T00:54:30.187Z,6.6
2015-10-01T00:54:48.671Z,6.6
2015-10-01T00:55:07.062Z,6.5
2015-10-01T00:55:25.440Z,6.5
2015-10-01T00:55:44.127Z,6.6
2015-10-01T00:56:02.580Z,6.5
2015-10-01T00:56:20.927Z,6.5
2015-10-01T00:56:39.302Z,6.5
2015-10-01T00:56:57.771Z,6.5
2015-10-01T00:57:16.335Z,6.4
2015-10-01T00:57:34.726Z,6.5
2015-10-01T00:57:53.101Z,6.5
2015-10-01T00:58:11.507Z,6.6
2015-10-01T00:58:30.120Z,6.5
2015-10-01T00:58:48.776Z,6.5
2015-10-01T00:59:07.120Z,6.6
2015-10-01T00:59:25.762Z,6.6
2015-10-01T00:59:44.215Z,6.7
2015-10-01T01:00:02.840Z,6.7
2015-10-01T01:00:21.234Z,6.7
2015-10-01T01:00:39.718Z,6.7
2015-10-01T01:00:58.109Z,6.7
2015-10-01T01:01:16.562Z,6.8
2015-10-01T01:01:35.049Z,6.8
2015-10-01T01:01:53.409Z,6.8
2015-10-01T01:02:11.909Z,6.8
2015-10-01T01:02:30.349Z,6.8
2015-10-01T01:02:48.724Z,6.8
2015-10-01T01:03:07.131Z,6.7
2015-10-01T01:03:25.509Z,6.7
2015-10-01T01:03:43.962Z,6.7
2015-10-01T01:04:02.384Z,6.7
2015-10-01T01:04:20.743Z,6.7
2015-10-01T01:04:39.183Z,6.7
2015-10-01T01:04:57.574Z,6.7
2015-10-01T01:05:16.027Z,6.7
2015-10-01T01:05:34.389Z,6.7
2015-10-01T01:05:52.826Z,6.6
2015-10-01T01:06:11.217Z,6.6
2015-10-01T01:06:29.595Z,6.6
2015-10-01T01:06:48.001Z,6.6
2015-10-01T01:07:06.626Z,6.6
2015-10-01T01:07:25.238Z,6.6
2015-10-01T01:07:43.629Z,6.6
2015-10-01T01:08:02.020Z,6.6
2015-10-01T01:08:20.551Z,6.6
2015-10-01T01:08:38.959Z,6.6
2015-10-01T01:08:57.428Z,6.6
2015-10-01T01:09:15.787Z,6.5
2015-10-01T01:09:34.212Z,6.5
2015-10-01T01:09:51.915Z,6.6
2015-10-01T01:10:10.275Z,6.6
2015-10-01T01:10:28.637Z,6.6
2015-10-01T01:10:47.074Z,6.6
2015-10-01T01:11:05.481Z,6.6
2015-10-01T01:11:23.949Z,6.5
2015-10-01T01:11:42.327Z,6.5
2015-10-01T01:12:00.796Z,6.5
2015-10-01T01:12:19.202Z,6.5
2015-10-01T01:12:37.611Z,6.5
2015-10-01T01:12:56.064Z,6.4
2015-10-01T01:13:14.658Z,6.5
2015-10-01T01:13:33.098Z,6.5
2015-10-01T01:13:51.489Z,6.4
2015-10-01T01:14:09.973Z,6.4
2015-10-01T01:14:28.332Z,6.5
2015-10-01T01:14:46.741Z,6.5
2015-10-01T01:15:05.303Z,6.5
2015-10-01T01:15:23.788Z,6.5
2015-10-01T01:15:42.181Z,6.4
2015-10-01T01:16:00.603Z,6.4
2015-10-01T01:16:18.962Z,6.4
2015-10-01T01:16:37.498Z,6.4
2015-10-01T01:16:55.904Z,6.4
2015-10-01T01:17:14.295Z,6.4
2015-10-01T01:17:32.841Z,6.5
2015-10-01T01:17:51.406Z,6.5
2015-10-01T01:18:09.828Z,6.5
2015-10-01T01:18:28.234Z,6.5
2015-10-01T01:18:46.628Z,6.5
2015-10-01T01:19:05.018Z,6.5
2015-10-01T01:19:23.393Z,6.4
2015-10-01T01:19:41.959Z,6.5
2015-10-01T01:20:00.412Z,6.5
2015-10-01T01:20:19.068Z,6.5
2015-10-01T01:20:37.474Z,6.5
2015-10-01T01:20:56.212Z,6.5
2015-10-01T01:21:14.587Z,6.5
2015-10-01T01:21:32.977Z,6.4
2015-10-01T01:21:51.370Z,6.4
2015-10-01T01:22:09.995Z,6.4
2015-10-01T01:22:28.354Z,6.4
2015-10-01T01:22:46.966Z,6.3
2015-10-01T01:23:05.372Z,6.4
2015-10-01T01:23:23.778Z,6.4
2015-10-01T01:23:42.263Z,6.4
2015-10-01T01:24:00.875Z,6.3
2015-10-01T01:24:19.578Z,6.4
2015-10-01T01:24:37.875Z,6.3
2015-10-01T01:24:56.394Z,6.3
2015-10-01T01:25:14.972Z,6.4
2015-10-01T01:25:33.456Z,6.3
2015-10-01T01:25:51.944Z,6.3
2015-10-01T01:26:10.475Z,6.4
2015-10-01T01:26:29.053Z,6.3
2015-10-01T01:26:47.428Z,6.3
2015-10-01T01:27:05.947Z,6.3
2015-10-01T01:27:24.306Z,6.3
2015-10-01T01:27:42.650Z,6.2
2015-10-01T01:28:01.261Z,6.2
2015-10-01T01:28:19.824Z,6.2
2015-10-01T01:28:37.667Z,6.2
2015-10-01T01:28:56.498Z,6.2
2015-10-01T01:29:15.170Z,6.3
2015-10-01T01:29:33.702Z,6.2
2015-10-01T01:29:52.452Z,6.2
2015-10-01T01:30:11.033Z,6.2
2015-10-01T01:30:29.580Z,6.2
2015-10-01T01:30:48.205Z,6.2
2015-10-01T01:31:06.614Z,6.3
2015-10-01T01:31:24.989Z,6.3
2015-10-01T01:31:43.333Z,6.3
2015-10-01T01:32:02.070Z,6.3
2015-10-01T01:32:20.601Z,6.3
2015-10-01T01:32:39.086Z,6.3
2015-10-01T01:32:57.711Z,6.4
2015-10-01T01:33:16.306Z,6.4
2015-10-01T01:33:34.697Z,6.4
2015-10-01T01:33:53.525Z,6.3
2015-10-01T01:34:12.294Z,6.3
2015-10-01T01:34:30.762Z,6.4
2015-10-01T01:34:49.137Z,6.4
2015-10-01T01:35:07.500Z,6.3
2015-10-01T01:35:25.984Z,6.3
2015-10-01T01:35:44.484Z,6.3
2015-10-01T01:36:02.986Z,6.3
2015-10-01T01:36:21.580Z,6.3
2015-10-01T01:36:40.127Z,6.3
2015-10-01T01:36:58.549Z,6.3
2015-10-01T01:37:16.911Z,6.3
2015-10-01T01:37:35.630Z,6.3
2015-10-01T01:37:54.145Z,6.3
2015-10-01T01:38:12.508Z,6.3
2015-10-01T01:38:31.383Z,6.3
2015-10-01T01:38:50.023Z,6.2
2015-10-01T01:39:08.401Z,6.1
2015-10-01T01:39:26.839Z,6.1
2015-10-01T01:39:45.511Z,6.1
2015-10-01T01:40:04.026Z,6.1
2015-10-01T01:40:22.607Z,6.1
2015-10-01T01:40:41.185Z,6.1
2015-10-01T01:40:59.747Z,6.1
2015-10-01T01:41:18.485Z,6.1
2015-10-01T01:41:36.860Z,6.1
2015-10-01T01:41:55.250Z,6.2
2015-10-01T01:42:13.675Z,6.1
2015-10-01T01:42:32.066Z,6.2
2015-10-01T01:42:50.441Z,6.2
2015-10-01T01:43:08.847Z,6.2
2015-10-01T01:43:27.350Z,6.2
2015-10-01T01:43:45.912Z,6.2
2015-10-01T01:44:04.303Z,6.2
2015-10-01T01:44:22.727Z,6.2
2015-10-01T01:44:41.321Z,6.2
2015-10-01T01:44:59.758Z,6.2
2015-10-01T01:45:18.371Z,6.2
2015-10-01T01:45:36.777Z,6.2
2015-10-01T01:45:55.136Z,6.2
2015-10-01T01:46:13.480Z,6.2
2015-10-01T01:46:32.092Z,6.2
2015-10-01T01:46:50.733Z,6.2
2015-10-01T01:47:09.311Z,6.2
2015-10-01T01:47:27.986Z,6.2
2015-10-01T01:47:46.517Z,6.2
2015-10-01T01:48:05.220Z,6.2
2015-10-01T01:48:23.833Z,6.2
2015-10-01T01:48:42.520Z,6.2
2015-10-01T01:49:01.208Z,6.2
2015-10-01T01:49:19.692Z,6.2
2015-10-01T01:49:38.147Z,6.2
2015-10-01T01:49:56.788Z,6.2
2015-10-01T01:50:15.163Z,6.2
2015-10-01T01:50:33.619Z,6.3
2015-10-01T01:50:52.025Z,6.2
2015-10-01T01:51:10.541Z,6.2
2015-10-01T01:51:28.981Z,6.1
2015-10-01T01:51:47.388Z,6.1
2015-10-01T01:52:05.950Z,6.2
2015-10-01T01:52:24.500Z,6.2
2015-10-01T01:52:42.906Z,6.2
2015-10-01T01:53:01.562Z,6.2
2015-10-01T01:53:20.531Z,6.1
2015-10-01T01:53:38.971Z,6.1
2015-10-01T01:53:57.408Z,6.1
2015-10-01T01:54:16.268Z,6.2
2015-10-01T01:54:34.724Z,6.2
2015-10-01T01:54:53.099Z,6.2
2015-10-01T01:55:11.677Z,6.2
2015-10-01T01:55:30.086Z,6.2
2015-10-01T01:55:48.586Z,6.2
2015-10-01T01:56:06.992Z,6.2
2015-10-01T01:56:25.479Z,6.2
2015-10-01T01:56:44.041Z,6.2
2015-10-01T01:57:02.510Z,6.2
2015-10-01T01:57:21.197Z,6.1
2015-10-01T01:57:39.544Z,6.1
2015-10-01T01:57:58.169Z,6.2
2015-10-01T01:58:16.544Z,6.1
2015-10-01T01:58:34.922Z,6.1
2015-10-01T01:58:53.344Z,6.1
2015-10-01T01:59:11.844Z,6.1
2015-10-01T01:59:30.300Z,6.1
2015-10-01T01:59:48.878Z,6.2
2015-10-01T02:00:07.238Z,6.2
2015-10-01T02:00:25.691Z,6.2
2015-10-01T02:00:44.162Z,6.2
2015-10-01T02:01:02.537Z,6.2
2015-10-01T02:01:20.912Z,6.2
2015-10-01T02:01:39.368Z,6.2
2015-10-01T02:01:57.774Z,6.2
2015-10-01T02:02:16.477Z,6.2
2015-10-01T02:02:34.839Z,6.2
2015-10-01T02:02:53.355Z,6.2
2015-10-01T02:03:11.714Z,6.1
2015-10-01T02:03:30.217Z,6.1
2015-10-01T02:03:48.936Z,6.2
2015-10-01T02:04:07.483Z,6.1
2015-10-01T02:04:25.858Z,6.1
2015-10-01T02:04:44.516Z,6.2
2015-10-01T02:05:03.251Z,6.1
2015-10-01T02:05:21.688Z,6.1
2015-10-01T02:05:40.190Z,6.2
2015-10-01T02:05:58.550Z,6.2
2015-10-01T02:06:16.971Z,6.2
2015-10-01T02:06:35.632Z,6.2
2015-10-01T02:06:54.272Z,6.2
2015-10-01T02:07:12.663Z,6.1
2015-10-01T02:07:31.272Z,6.2
2015-10-01T02:07:49.666Z,6.2
2015-10-01T02:08:08.260Z,6.2
2015-10-01T02:08:26.728Z,6.2
2015-10-01T02:08:45.121Z,6.2
2015-10-01T02:09:03.480Z,6.2
2015-10-01T02:09:21.855Z,6.2
2015-10-01T02:09:40.515Z,6.1
2015-10-01T02:09:58.952Z,6.2
2015-10-01T02:10:17.452Z,6.2
2015-10-01T02:10:35.937Z,6.1
2015-10-01T02:10:54.658Z,6.1
2015-10-01T02:11:13.018Z,6.2
2015-10-01T02:11:31.518Z,6.2
2015-10-01T02:11:49.910Z,6.2
2015-10-01T02:12:08.395Z,6.2
2015-10-01T02:12:26.785Z,6.2
2015-10-01T02:12:45.413Z,6.2
2015-10-01T02:13:03.945Z,6.2
2015-10-01T02:13:22.570Z,6.2
2015-10-01T02:13:41.244Z,6.2
2015-10-01T02:13:59.651Z,6.2
2015-10-01T02:14:18.244Z,6.2
2015-10-01T02:14:36.619Z,6.2
2015-10-01T02:14:55.262Z,6.2
2015-10-01T02:15:13.856Z,6.2
2015-10-01T02:15:32.637Z,6.2
2015-10-01T02:15:51.109Z,6.2
2015-10-01T02:16:09.499Z,6.2
2015-10-01T02:16:27.984Z,6.1
2015-10-01T02:16:46.409Z,6.1
2015-10-01T02:17:04.909Z,6.1
2015-10-01T02:17:23.424Z,6.1
2015-10-01T02:17:42.252Z,6.1
2015-10-01T02:18:00.662Z,6.1
2015-10-01T02:18:19.380Z,6.1
2015-10-01T02:18:37.740Z,6.2
2015-10-01T02:18:56.321Z,6.1
2015-10-01T02:19:14.712Z,6.1
2015-10-01T02:19:33.212Z,6.1
2015-10-01T02:19:51.636Z,6.1
2015-10-01T02:20:10.074Z,6
2015-10-01T02:20:28.683Z,6
2015-10-01T02:20:47.183Z,6
2015-10-01T02:21:05.654Z,6
2015-10-01T02:21:24.326Z,6
2015-10-01T02:21:42.701Z,6
2015-10-01T02:22:01.501Z,6
2015-10-01T02:22:20.126Z,6
2015-10-01T02:22:38.516Z,6
2015-10-01T02:22:56.925Z,6
2015-10-01T02:23:15.378Z,6
2015-10-01T02:23:33.737Z,6
2015-10-01T02:23:52.300Z,6
2015-10-01T02:24:11.021Z,6
2015-10-01T02:24:29.459Z,5.9
2015-10-01T02:24:47.818Z,5.9
2015-10-01T02:25:06.243Z,6
2015-10-01T02:25:24.743Z,6
2015-10-01T02:25:43.259Z,5.9
2015-10-01T02:26:01.856Z,5.8
2015-10-01T02:26:20.246Z,5.7
2015-10-01T02:26:38.824Z,5.8
2015-10-01T02:26:57.434Z,5.8
2015-10-01T02:27:15.796Z,5.9
2015-10-01T02:27:34.718Z,5.9
2015-10-01T02:27:53.155Z,5.9
2015-10-01T02:28:11.548Z,6
2015-10-01T02:28:30.079Z,5.9
2015-10-01T02:28:48.470Z,6
2015-10-01T02:29:07.034Z,6
2015-10-01T02:29:25.519Z,6
2015-10-01T02:29:44.003Z,6
2015-10-01T02:30:02.570Z,5.9
2015-10-01T02:30:21.070Z,5.9
2015-10-01T02:30:39.523Z,5.9
2015-10-01T02:30:58.007Z,5.9
2015-10-01T02:31:16.822Z,5.9
2015-10-01T02:31:35.244Z,6
2015-10-01T02:31:53.853Z,6
2015-10-01T02:32:12.309Z,6
2015-10-01T02:32:30.872Z,6
2015-10-01T02:32:49.231Z,6
2015-10-01T02:33:07.718Z,6
2015-10-01T02:33:26.359Z,6
2015-10-01T02:33:44.796Z,6.1
2015-10-01T02:34:03.343Z,6.1
2015-10-01T02:34:22.003Z,6.1
2015-10-01T02:34:40.409Z,6.1
2015-10-01T02:34:58.815Z,6.1
2015-10-01T02:35:17.208Z,6.1
2015-10-01T02:35:35.598Z,6.1
2015-10-01T02:35:53.989Z,6
2015-10-01T02:36:12.429Z,6
2015-10-01T02:36:31.008Z,6
2015-10-01T02:36:49.523Z,6
2015-10-01T02:37:08.336Z,6
2015-10-01T02:37:26.776Z,6
2015-10-01T02:37:45.386Z,6
2015-10-01T02:38:04.026Z,6
2015-10-01T02:38:22.606Z,6
2015-10-01T02:38:41.138Z,6.1
2015-10-01T02:38:59.544Z,6.1
2015-10-01T02:39:17.985Z,6
2015-10-01T02:39:36.610Z,6
2015-10-01T02:39:55.157Z,6
2015-10-01T02:40:13.657Z,6.1
2015-10-01T02:40:32.284Z,6.1
2015-10-01T02:40:50.753Z,6.1
2015-10-01T02:41:09.097Z,6.1
2015-10-01T02:41:27.490Z,6.1
2015-10-01T02:41:46.147Z,6
2015-10-01T02:42:04.725Z,6
2015-10-01T02:42:23.195Z,5.9
2015-10-01T02:42:41.680Z,6
2015-10-01T02:43:00.180Z,5.9
2015-10-01T02:43:18.558Z,6
2015-10-01T02:43:36.995Z,5.9
2015-10-01T02:43:55.402Z,5.9
2015-10-01T02:44:13.964Z,5.9
2015-10-01T02:44:32.326Z,6
2015-10-01T02:44:51.030Z,5.9
2015-10-01T02:45:09.686Z,5.9
2015-10-01T02:45:28.236Z,6
2015-10-01T02:45:46.783Z,6
2015-10-01T02:46:05.189Z,6
2015-10-01T02:46:23.535Z,6
2015-10-01T02:46:41.910Z,6
2015-10-01T02:47:00.363Z,6
2015-10-01T02:47:19.225Z,5.9
2015-10-01T02:47:37.741Z,6
2015-10-01T02:47:56.100Z,5.9
2015-10-01T02:48:14.772Z,5.9
2015-10-01T02:48:33.275Z,6
2015-10-01T02:48:51.681Z,6
2015-10-01T02:49:10.416Z,6
2015-10-01T02:49:28.965Z,6
2015-10-01T02:49:47.497Z,6
2015-10-01T02:50:06.012Z,6
2015-10-01T02:50:24.405Z,5.9
2015-10-01T02:50:43.092Z,5.9
2015-10-01T02:51:01.749Z,5.9
2015-10-01T02:51:20.311Z,5.9
2015-10-01T02:51:38.861Z,5.9
2015-10-01T02:51:57.486Z,5.8
2015-10-01T02:52:15.892Z,5.8
2015-10-01T02:52:34.286Z,5.8
2015-10-01T02:52:53.005Z,5.8
2015-10-01T02:53:11.552Z,5.9
2015-10-01T02:53:30.038Z,5.8
2015-10-01T02:53:48.507Z,5.8
2015-10-01T02:54:07.007Z,5.8
2015-10-01T02:54:25.525Z,5.9
2015-10-01T02:54:44.228Z,5.9
2015-10-01T02:55:02.682Z,5.9
2015-10-01T02:55:21.478Z,5.9
2015-10-01T02:55:39.903Z,5.8
2015-10-01T02:55:58.466Z,5.9
2015-10-01T02:56:16.903Z,5.9
2015-10-01T02:56:35.265Z,5.9
2015-10-01T02:56:53.687Z,5.9
2015-10-01T02:57:12.390Z,5.8
2015-10-01T02:57:30.800Z,5.8
2015-10-01T02:57:49.347Z,5.9
2015-10-01T02:58:07.784Z,5.9
2015-10-01T02:58:26.222Z,5.8
2015-10-01T02:58:44.677Z,5.8
2015-10-01T02:59:03.239Z,5.8
2015-10-01T02:59:21.614Z,5.8
2015-10-01T02:59:40.180Z,5.8
2015-10-01T02:59:58.758Z,5.8
2015-10-01T03:00:17.289Z,5.8
2015-10-01T03:00:35.652Z,5.8
2015-10-01T03:00:53.995Z,5.8
2015-10-01T03:01:12.714Z,5.8
2015-10-01T03:01:31.077Z,5.7
2015-10-01T03:01:49.561Z,5.7
2015-10-01T03:02:07.936Z,5.7
2015-10-01T03:02:26.389Z,5.7
2015-10-01T03:02:44.782Z,5.7
2015-10-01T03:03:03.672Z,5.7
2015-10-01T03:03:22.032Z,5.7
2015-10-01T03:03:40.394Z,5.7
2015-10-01T03:03:59.066Z,5.7
2015-10-01T03:04:17.457Z,5.7
2015-10-01T03:04:35.990Z,5.6
2015-10-01T03:04:54.396Z,5.5
2015-10-01T03:05:13.021Z,5.6
2015-10-01T03:05:31.521Z,5.6
2015-10-01T03:05:49.993Z,5.6
2015-10-01T03:06:08.805Z,5.6
2015-10-01T03:06:27.430Z,5.6
2015-10-01T03:06:46.121Z,5.7
2015-10-01T03:07:04.636Z,5.7
2015-10-01T03:07:23.152Z,5.7
2015-10-01T03:07:41.514Z,5.8
2015-10-01T03:07:59.874Z,5.8
2015-10-01T03:08:18.468Z,5.7
2015-10-01T03:08:36.843Z,5.8
2015-10-01T03:08:55.283Z,5.8
2015-10-01T03:09:13.908Z,5.8
2015-10-01T03:09:32.408Z,5.7
2015-10-01T03:09:50.892Z,5.7
2015-10-01T03:10:09.252Z,5.7
2015-10-01T03:10:27.908Z,5.7
2015-10-01T03:10:46.430Z,5.7
2015-10-01T03:11:04.993Z,5.7
2015-10-01T03:11:23.430Z,5.8
2015-10-01T03:11:41.842Z,5.8
2015-10-01T03:12:00.780Z,5.8
2015-10-01T03:12:19.217Z,5.8
2015-10-01T03:12:37.623Z,5.7
2015-10-01T03:12:56.237Z,5.7
2015-10-01T03:13:14.628Z,5.7
2015-10-01T03:13:33.159Z,5.7
2015-10-01T03:13:51.524Z,5.8
2015-10-01T03:14:09.884Z,5.8
2015-10-01T03:14:28.727Z,5.8
2015-10-01T03:14:47.640Z,5.7
2015-10-01T03:15:06.125Z,5.7
2015-10-01T03:15:24.484Z,5.6
2015-10-01T03:15:42.906Z,5.6
2015-10-01T03:16:01.358Z,5.6
2015-10-01T03:16:19.827Z,5.5
2015-10-01T03:16:38.327Z,5.4
2015-10-01T03:16:56.825Z,5.5
2015-10-01T03:17:15.403Z,5.6
2015-10-01T03:17:33.965Z,5.6
2015-10-01T03:17:52.667Z,5.6
2015-10-01T03:18:11.229Z,5.6
2015-10-01T03:18:29.745Z,5.6
2015-10-01T03:18:48.259Z,5.4
2015-10-01T03:19:06.009Z,5.4
2015-10-01T03:19:24.681Z,5.4
2015-10-01T03:19:43.619Z,5.4
2015-10-01T03:20:02.040Z,5.4
2015-10-01T03:20:20.540Z,5.4
2015-10-01T03:20:39.336Z,5.5
2015-10-01T03:20:57.713Z,5.5
2015-10-01T03:21:16.682Z,5.4
2015-10-01T03:21:35.260Z,5.4
2015-10-01T03:21:53.886Z,5.4
2015-10-01T03:22:12.558Z,5.4
2015-10-01T03:22:31.293Z,5.5
2015-10-01T03:22:50.058Z,5.5
2015-10-01T03:23:08.637Z,5.5
2015-10-01T03:23:27.278Z,5.5
2015-10-01T03:23:46.075Z,5.5
2015-10-01T03:24:04.576Z,5.6
2015-10-01T03:24:23.295Z,5.6
2015-10-01T03:24:42.076Z,5.6
2015-10-01T03:25:00.499Z,5.6
2015-10-01T03:25:18.905Z,5.5
2015-10-01T03:25:37.561Z,5.6
2015-10-01T03:25:56.155Z,5.7
2015-10-01T03:26:14.814Z,5.7
2015-10-01T03:26:33.345Z,5.7
2015-10-01T03:26:51.955Z,5.6
2015-10-01T03:27:10.566Z,5.6
2015-10-01T03:27:29.238Z,5.6
2015-10-01T03:27:47.660Z,5.6
2015-10-01T03:28:06.256Z,5.6
2015-10-01T03:28:24.943Z,5.6
2015-10-01T03:28:43.568Z,5.6
2015-10-01T03:29:02.272Z,5.4
2015-10-01T03:29:20.679Z,5.5
2015-10-01T03:29:39.225Z,5.5
2015-10-01T03:29:57.632Z,5.5
2015-10-01T03:30:16.010Z,5.5
2015-10-01T03:30:34.510Z,5.5
2015-10-01T03:30:52.916Z,5.5
2015-10-01T03:31:11.341Z,5.6
2015-10-01T03:31:29.810Z,5.6
2015-10-01T03:31:48.247Z,5.5
2015-10-01T03:32:07.155Z,5.5
2015-10-01T03:32:25.593Z,5.5
2015-10-01T03:32:43.952Z,5.5
2015-10-01T03:33:02.312Z,5.5
2015-10-01T03:33:20.720Z,5.5
2015-10-01T03:33:39.126Z,5.5
2015-10-01T03:33:57.548Z,5.6
2015-10-01T03:34:16.034Z,5.6
2015-10-01T03:34:34.425Z,5.6
2015-10-01T03:34:52.862Z,5.6
2015-10-01T03:35:11.302Z,5.5
2015-10-01T03:35:29.661Z,5.5
2015-10-01T03:35:48.161Z,5.5
2015-10-01T03:36:06.724Z,5.5
2015-10-01T03:36:25.586Z,5.6
2015-10-01T03:36:43.946Z,5.6
2015-10-01T03:37:02.524Z,5.6
2015-10-01T03:37:20.949Z,5.5
2015-10-01T03:37:39.495Z,5.5
2015-10-01T03:37:57.855Z,5.5
2015-10-01T03:38:16.248Z,5.6
2015-10-01T03:38:35.030Z,5.6
2015-10-01T03:38:53.530Z,5.6
2015-10-01T03:39:12.298Z,5.5
2015-10-01T03:39:30.673Z,5.5
2015-10-01T03:39:49.142Z,5.5
2015-10-01T03:40:07.455Z,5.6
2015-10-01T03:40:25.832Z,5.6
2015-10-01T03:40:44.441Z,5.5
2015-10-01T03:41:03.160Z,5.5
2015-10-01T03:41:21.616Z,5.6
2015-10-01T03:41:40.069Z,5.6
2015-10-01T03:41:58.460Z,5.6
2015-10-01T03:42:16.822Z,5.6
2015-10-01T03:42:35.525Z,5.6
2015-10-01T03:42:54.072Z,5.5
2015-10-01T03:43:12.572Z,5.6
2015-10-01T03:43:31.902Z,5.6
2015-10-01T03:43:50.636Z,5.5
2015-10-01T03:44:09.277Z,5.5
2015-10-01T03:44:28.077Z,5.5
2015-10-01T03:44:46.827Z,5.5
2015-10-01T03:45:05.218Z,5.5
2015-10-01T03:45:23.596Z,5.6
2015-10-01T03:45:42.299Z,5.6
2015-10-01T03:46:00.674Z,5.5
2015-10-01T03:46:19.161Z,5.5
2015-10-01T03:46:37.614Z,5.5
2015-10-01T03:46:55.974Z,5.5
2015-10-01T03:47:14.567Z,5.5
2015-10-01T03:47:33.227Z,5.5
2015-10-01T03:47:51.930Z,5.5
2015-10-01T03:48:10.367Z,5.6
2015-10-01T03:48:28.791Z,5.6
2015-10-01T03:48:47.369Z,5.6
2015-10-01T03:49:05.869Z,5.6
2015-10-01T03:49:24.607Z,5.6
2015-10-01T03:49:43.013Z,5.6
2015-10-01T03:50:01.560Z,5.6
2015-10-01T03:50:20.110Z,5.6
2015-10-01T03:50:38.672Z,5.6
2015-10-01T03:50:57.094Z,5.6
2015-10-01T03:51:15.500Z,5.6
2015-10-01T03:51:33.893Z,5.6
2015-10-01T03:51:52.549Z,5.6
2015-10-01T03:52:11.299Z,5.6
2015-10-01T03:52:29.865Z,5.5
2015-10-01T03:52:48.552Z,5.4
2015-10-01T03:53:06.958Z,5.5
2015-10-01T03:53:25.399Z,5.5
2015-10-01T03:53:43.930Z,5.5
2015-10-01T03:54:02.399Z,5.5
2015-10-01T03:54:21.039Z,5.5
2015-10-01T03:54:39.495Z,5.5
2015-10-01T03:54:57.901Z,5.5
2015-10-01T03:55:16.323Z,5.5
2015-10-01T03:55:34.732Z,5.5
2015-10-01T03:55:53.498Z,5.6
2015-10-01T03:56:11.935Z,5.6
2015-10-01T03:56:30.594Z,5.6
2015-10-01T03:56:49.110Z,5.5
2015-10-01T03:57:07.672Z,5.6
2015-10-01T03:57:26.313Z,5.6
2015-10-01T03:57:45.254Z,5.6
2015-10-01T03:58:03.879Z,5.6
2015-10-01T03:58:22.269Z,5.5
2015-10-01T03:58:40.646Z,5.6
2015-10-01T03:58:59.177Z,5.6
2015-10-01T03:59:17.568Z,5.5
2015-10-01T03:59:36.165Z,5.5
2015-10-01T03:59:54.696Z,5.5
2015-10-01T04:00:13.149Z,5.5
2015-10-01T04:00:31.712Z,5.5
2015-10-01T04:00:50.558Z,5.4
2015-10-01T04:01:09.058Z,5.4
2015-10-01T04:01:27.637Z,5.4
2015-10-01T04:01:46.218Z,5.4
2015-10-01T04:02:04.718Z,5.5
2015-10-01T04:02:23.186Z,5.5
2015-10-01T04:02:41.735Z,5.5
2015-10-01T04:03:00.188Z,5.6
2015-10-01T04:03:18.626Z,5.5
2015-10-01T04:03:37.235Z,5.5
2015-10-01T04:03:56.052Z,5.5
2015-10-01T04:04:14.724Z,5.6
2015-10-01T04:04:33.317Z,5.6
2015-10-01T04:04:52.007Z,5.5
2015-10-01T04:05:10.788Z,5.5
2015-10-01T04:05:29.179Z,5.5
2015-10-01T04:05:47.432Z,5.5
2015-10-01T04:06:05.932Z,5.5
2015-10-01T04:06:24.307Z,5.5
2015-10-01T04:06:42.715Z,5.4
2015-10-01T04:07:01.215Z,5.4
2015-10-01T04:07:19.856Z,5.4
2015-10-01T04:07:38.215Z,5.4
2015-10-01T04:07:56.827Z,5.4
2015-10-01T04:08:15.374Z,5.4
2015-10-01T04:08:33.781Z,5.4
2015-10-01T04:08:52.409Z,5.4
2015-10-01T04:09:11.065Z,5.3
2015-10-01T04:09:29.596Z,5.4
2015-10-01T04:09:47.958Z,5.4
2015-10-01T04:10:06.537Z,5.4
2015-10-01T04:10:24.958Z,5.4
2015-10-01T04:10:43.380Z,5.3
2015-10-01T04:11:01.993Z,5.4
2015-10-01T04:11:20.571Z,5.3
2015-10-01T04:11:39.024Z,5.3
2015-10-01T04:11:57.480Z,5.3
2015-10-01T04:12:15.871Z,5.3
2015-10-01T04:12:34.449Z,5.3
2015-10-01T04:12:52.998Z,5.3
2015-10-01T04:13:11.576Z,5.4
2015-10-01T04:13:29.982Z,5.4
2015-10-01T04:13:48.701Z,5.3
2015-10-01T04:14:07.141Z,5.3
2015-10-01T04:14:25.704Z,5.3
2015-10-01T04:14:44.204Z,5.3
2015-10-01T04:15:02.816Z,5.4
2015-10-01T04:15:21.191Z,5.3
2015-10-01T04:15:39.801Z,5.2
2015-10-01T04:15:58.163Z,5.3
2015-10-01T04:16:16.632Z,5.3
2015-10-01T04:16:35.147Z,5.2
2015-10-01T04:16:53.585Z,5.2
2015-10-01T04:17:12.009Z,5.2
2015-10-01T04:17:30.493Z,5.3
2015-10-01T04:17:48.977Z,5.3